Time;durP1;ratioP1;P1;durP2;ratioP2;P2;SDS_P1;SDS_P2;PMS_P1;PMS_P2;Temp;Humidity;BMP_temperature;BMP_pressure;BME280_temperature;BME280_humidity;BME280_pressure;Samples;Min_cycle;Max_cycle;Signal;HPM_P1;HPM_P2
2021/12/18 00:00:23;;;;;;;21.40;8.93;;;;;;;1.87;100.00;99613.91;5070283;28;20194;-68
2021/12/18 00:02:50;;;;;;;16.73;8.87;;;;;;;1.85;100.00;99613.13;5069993;28;20246;-61
2021/12/18 00:05:18;;;;;;;18.33;8.70;;;;;;;1.94;100.00;99612.03;5070062;28;20210;-61
2021/12/18 00:07:45;;;;;;;16.60;8.67;;;;;;;1.79;100.00;99613.28;5069861;28;20707;-61
2021/12/18 00:10:12;;;;;;;18.00;8.87;;;;;;;1.71;100.00;99608.44;5070131;28;20203;-62
2021/12/18 00:12:40;;;;;;;18.27;8.47;;;;;;;1.66;100.00;99611.97;5070046;28;20226;-69
2021/12/18 00:15:08;;;;;;;17.37;8.20;;;;;;;1.65;100.00;99610.31;5069925;28;20194;-68
2021/12/18 00:17:35;;;;;;;25.27;9.67;;;;;;;1.65;100.00;99607.81;5069683;28;20214;-61
2021/12/18 00:20:02;;;;;;;32.30;11.80;;;;;;;1.64;100.00;99606.16;5069955;28;20656;-62
2021/12/18 00:22:30;;;;;;;30.70;11.23;;;;;;;1.67;100.00;99609.41;5070010;28;20225;-68
2021/12/18 00:24:57;;;;;;;21.37;9.80;;;;;;;1.73;100.00;99608.44;5069767;28;20242;-61
2021/12/18 00:27:24;;;;;;;18.77;8.50;;;;;;;1.71;100.00;99612.69;5069875;28;20657;-61
2021/12/18 00:29:51;;;;;;;18.20;8.30;;;;;;;1.69;100.00;99612.72;5069966;28;20195;-61
2021/12/18 00:32:17;;;;;;;16.27;8.10;;;;;;;1.67;100.00;99608.59;5069917;28;20226;-61
2021/12/18 00:34:44;;;;;;;16.17;8.13;;;;;;;1.60;100.00;99610.47;5069942;28;20206;-68
2021/12/18 00:37:11;;;;;;;16.87;8.17;;;;;;;1.55;100.00;99614.81;5069823;28;20229;-61
2021/12/18 00:39:46;;;;;;;18.50;8.10;;;;;;;1.50;100.00;99607.34;5069795;28;20217;-68
2021/12/18 00:42:24;;;;;;;16.93;8.33;;;;;;;1.52;100.00;99605.63;5070036;28;20303;-61
2021/12/18 00:44:51;;;;;;;14.97;7.67;;;;;;;1.50;100.00;99607.34;5069730;28;20257;-68
2021/12/18 00:47:18;;;;;;;17.87;8.10;;;;;;;1.50;100.00;99607.34;5069679;28;20313;-67
2021/12/18 00:49:45;;;;;;;17.10;7.47;;;;;;;1.48;100.00;99605.75;5069489;28;20198;-68
2021/12/18 00:52:13;;;;;;;17.27;7.63;;;;;;;1.38;100.00;99597.59;5072409;28;20226;-68
2021/12/18 00:54:41;;;;;;;17.80;7.90;;;;;;;1.33;100.00;99604.44;5073017;28;20233;-68
2021/12/18 00:57:08;;;;;;;18.03;8.27;;;;;;;1.41;100.00;99592.47;5072977;28;20226;-61
2021/12/18 00:59:35;;;;;;;18.63;8.50;;;;;;;1.30;100.00;99600.31;5073072;28;20199;-68
2021/12/18 01:02:02;;;;;;;17.77;8.00;;;;;;;1.22;100.00;99592.16;5073293;28;20374;-68
2021/12/18 01:04:29;;;;;;;17.93;7.63;;;;;;;1.21;100.00;99599.75;5073040;28;20237;-68
2021/12/18 01:06:56;;;;;;;16.93;7.93;;;;;;;1.20;100.00;99598.09;5073100;28;20774;-68
2021/12/18 01:09:37;;;;;;;17.00;8.07;;;;;;;1.25;100.00;99601.28;5072987;28;20199;-61
2021/12/18 01:12:07;;;;;;;18.53;8.43;;;;;;;1.21;100.00;99594.69;5073048;28;20226;-68
2021/12/18 01:14:48;;;;;;;16.50;7.77;;;;;;;1.22;100.00;99591.31;5073265;28;20199;-68
2021/12/18 01:22:48;;;;;;;16.57;7.80;;;;;;;1.20;100.00;99598.91;5072879;28;20299;-61
2021/12/18 01:25:16;;;;;;;20.07;8.23;;;;;;;1.21;100.00;99598.03;5072946;28;20317;-68
2021/12/18 01:27:44;;;;;;;16.97;8.33;;;;;;;1.18;100.00;99599.81;5072451;28;20237;-61
2021/12/18 01:30:13;;;;;;;16.83;8.17;;;;;;;1.17;100.00;99603.22;5072543;28;20211;-61
2021/12/18 01:32:40;;;;;;;18.33;8.13;;;;;;;1.08;100.00;99596.72;5072386;28;20214;-61
2021/12/18 01:35:08;;;;;;;16.77;7.50;;;;;;;1.08;100.00;99599.25;5072441;28;20198;-63
2021/12/18 01:37:35;;;;;;;17.47;8.20;;;;;;;0.98;100.00;99601.13;5072282;28;20695;-68
2021/12/18 01:40:02;;;;;;;19.00;7.07;;;;;;;1.02;100.00;99600.22;5072525;28;20699;-68
2021/12/18 01:46:05;;;;;;;16.50;7.80;;;;;;;0.92;100.00;99603.81;5072728;28;20268;-68
2021/12/18 01:51:21;;;;;;;17.23;7.80;;;;;;;0.93;100.00;99600.41;5072189;28;20697;-61
2021/12/18 01:53:49;;;;;;;17.37;7.27;;;;;;;0.97;100.00;99596.97;5072036;28;20264;-68
2021/12/18 01:56:16;;;;;;;15.27;7.57;;;;;;;1.00;100.00;99601.94;5072437;28;20215;-60
2021/12/18 01:58:45;;;;;;;13.70;7.10;;;;;;;0.95;100.00;99598.69;5072024;28;20202;-61
2021/12/18 02:01:13;;;;;;;16.33;7.50;;;;;;;0.90;100.00;99595.47;5071777;28;20280;-61
2021/12/18 02:03:40;;;;;;;18.10;7.60;;;;;;;0.85;100.00;99597.28;5071604;28;20249;-61
2021/12/18 02:06:08;;;;;;;16.33;7.73;;;;;;;0.65;100.00;99606.13;5072233;28;20202;-68
2021/12/18 02:08:38;;;;;;;16.30;7.40;;;;;;;0.64;100.00;99613.69;5071686;28;20199;-68
2021/12/18 02:11:14;;;;;;;14.90;7.47;;;;;;;0.13;100.00;99607.28;5072199;28;20648;-68
2021/12/18 02:14:04;;;;;;;17.10;7.77;;;;;;;0.43;100.00;99615.03;5071844;28;20190;-68
2021/12/18 02:22:11;;;;;;;16.43;7.60;;;;;;;0.24;100.00;99609.59;5071631;28;20748;-60
2021/12/18 02:24:38;;;;;;;14.67;6.57;;;;;;;0.21;100.00;99610.47;5071117;28;20321;-61
2021/12/18 02:27:05;;;;;;;15.27;7.27;;;;;;;0.23;100.00;99602.88;5071583;28;20229;-61
2021/12/18 02:29:33;;;;;;;13.53;7.20;;;;;;;0.25;100.00;99610.41;5071658;28;20209;-61
2021/12/18 02:32:00;;;;;;;14.10;7.37;;;;;;;0.30;100.00;99609.44;5071352;28;20222;-60
2021/12/18 02:34:30;;;;;;;16.93;7.43;;;;;;;0.29;100.00;99606.94;5071392;28;20194;-61
2021/12/18 02:37:03;;;;;;;17.07;7.53;;;;;;;0.30;100.00;99604.41;5071287;28;20218;-68
2021/12/18 02:39:44;;;;;;;17.73;7.50;;;;;;;0.30;100.00;99609.44;5071655;28;20199;-68
2021/12/18 02:42:17;;;;;;;13.97;6.93;;;;;;;0.32;100.00;99607.75;5071189;28;20268;-61
2021/12/18 02:44:43;;;;;;;13.83;6.77;;;;;;;0.37;100.00;99610.13;5070974;28;20782;-60
2021/12/18 02:47:12;;;;;;;14.30;7.00;;;;;;;0.38;100.00;99611.81;5071103;28;20222;-61
2021/12/18 02:49:44;;;;;;;16.13;6.57;;;;;;;0.38;100.00;99611.81;5070916;28;20203;-68
2021/12/18 02:52:11;;;;;;;14.23;6.13;;;;;;;0.40;100.00;99615.09;5071090;28;20218;-61
2021/12/18 02:54:40;;;;;;;16.33;6.90;;;;;;;0.38;100.00;99619.34;5071103;28;20206;-61
2021/12/18 02:57:07;;;;;;;14.20;6.73;;;;;;;0.38;100.00;99621.88;5071107;28;20250;-60
2021/12/18 02:59:43;;;;;;;13.00;6.17;;;;;;;0.46;100.00;99627.53;5070842;28;20205;-61
2021/12/18 03:02:11;;;;;;;14.10;6.37;;;;;;;0.39;100.00;99623.50;5070869;28;20213;-61
2021/12/18 03:04:39;;;;;;;13.97;6.53;;;;;;;0.33;100.00;99631.19;5070622;28;20292;-68
2021/12/18 03:07:09;;;;;;;13.27;6.63;;;;;;;0.31;100.00;99625.34;5070633;28;20318;-61
2021/12/18 03:18:58;;;;;;;14.87;6.90;;;;;;;0.31;100.00;99622.84;5071065;28;20198;-61
2021/12/18 03:21:48;;;;;;;15.27;5.97;;;;;;;0.33;100.00;99624.47;5070696;28;20205;-68
2021/12/18 03:24:21;;;;;;;11.47;6.13;;;;;;;0.31;100.00;99621.16;5070567;28;20320;-61
2021/12/18 03:26:47;;;;;;;13.00;6.47;;;;;;;0.31;100.00;99627.88;5070825;28;20323;-62
2021/12/18 03:29:15;;;;;;;13.67;6.33;;;;;;;0.31;100.00;99621.16;5070881;28;20213;-68
2021/12/18 03:31:42;;;;;;;14.60;6.57;;;;;;;0.34;100.00;99625.28;5070346;28;20237;-61
2021/12/18 03:34:10;;;;;;;12.03;5.93;;;;;;;0.35;100.00;99621.91;5070522;28;20699;-68
2021/12/18 03:36:37;;;;;;;13.83;6.17;;;;;;;0.40;100.00;99635.22;5070676;28;20229;-68
2021/12/18 03:39:05;;;;;;;14.10;6.93;;;;;;;0.35;100.00;99634.47;5070666;28;20211;-61
2021/12/18 03:41:32;;;;;;;18.50;7.90;;;;;;;0.44;100.00;99641.84;5070461;28;20221;-68
2021/12/18 03:43:59;;;;;;;21.37;8.43;;;;;;;0.37;100.00;99647.84;5070526;28;20202;-68
2021/12/18 03:46:27;;;;;;;19.20;7.80;;;;;;;0.31;100.00;99655.53;5070258;28;20711;-61
2021/12/18 03:48:54;;;;;;;14.67;7.30;;;;;;;0.38;100.00;99647.00;5070387;28;20209;-69
2021/12/18 03:51:21;;;;;;;12.77;6.13;;;;;;;0.46;100.00;99645.13;5070512;28;20229;-68
2021/12/18 03:53:48;;;;;;;12.03;5.93;;;;;;;0.49;100.00;99642.56;5070235;28;20252;-61
2021/12/18 03:56:14;;;;;;;11.80;6.07;;;;;;;0.44;100.00;99646.88;5070362;28;20225;-60
2021/12/18 03:58:41;;;;;;;13.37;6.13;;;;;;;0.36;100.00;99653.75;5070115;28;20716;-68
2021/12/18 04:01:08;;;;;;;12.33;6.20;;;;;;;0.40;100.00;99660.38;5070405;28;20214;-61
2021/12/18 04:03:36;;;;;;;11.90;6.53;;;;;;;0.44;100.00;99659.47;5070033;28;20206;-61
2021/12/18 04:06:03;;;;;;;13.37;6.50;;;;;;;0.46;100.00;99662.75;5070067;28;20233;-61
2021/12/18 04:08:30;;;;;;;14.40;6.67;;;;;;;0.40;100.00;99675.47;5070354;28;20202;-61
2021/12/18 04:10:57;;;;;;;11.63;5.73;;;;;;;0.40;100.00;99688.03;5069965;28;20694;-69
2021/12/18 04:13:24;;;;;;;12.77;5.50;;;;;;;0.40;100.00;99696.41;5070123;28;20199;-68
2021/12/18 04:15:51;;;;;;;9.13;5.27;;;;;;;0.34;100.00;99700.75;5070118;28;20293;-68
2021/12/18 04:18:18;;;;;;;13.60;5.80;;;;;;;0.19;100.00;99702.69;5070229;28;20209;-60
2021/12/18 04:20:46;;;;;;;13.70;5.73;;;;;;;0.28;100.00;99705.91;5069764;28;20198;-68
2021/12/18 04:23:13;;;;;;;11.63;4.73;;;;;;;0.38;100.00;99714.94;5069876;28;20199;-61
2021/12/18 04:25:40;;;;;;;11.80;5.40;;;;;;;0.36;100.00;99709.09;5071833;28;20231;-60
2021/12/18 04:28:07;;;;;;;12.27;5.73;;;;;;;0.37;100.00;99710.72;5073684;28;20285;-68
2021/12/18 04:30:34;;;;;;;13.40;6.03;;;;;;;0.38;100.00;99714.94;5073841;28;20219;-61
2021/12/18 04:33:01;;;;;;;39.40;12.80;;;;;;;0.40;100.00;99723.25;5073928;28;20222;-68
2021/12/18 04:35:29;;;;;;;24.23;10.13;;;;;;;0.31;100.00;99726.78;5073944;28;20198;-60
2021/12/18 04:37:57;;;;;;;25.30;9.70;;;;;;;0.24;100.00;99729.47;5074340;28;20230;-61
2021/12/18 04:40:26;;;;;;;15.90;6.87;;;;;;;0.27;100.00;99734.44;5073672;28;20199;-61
2021/12/18 04:42:53;;;;;;;15.60;6.80;;;;;;;0.27;100.00;99731.91;5073809;28;20291;-60
2021/12/18 04:45:20;;;;;;;12.80;6.20;;;;;;;0.28;100.00;99731.03;5073437;28;20230;-61
2021/12/18 04:47:47;;;;;;;18.77;8.47;;;;;;;0.32;100.00;99742.69;5073671;28;20593;-68
2021/12/18 04:50:14;;;;;;;17.70;8.30;;;;;;;0.22;100.00;99747.91;5073593;28;20199;-61
2021/12/18 04:52:40;;;;;;;15.30;6.63;;;;;;;0.27;100.00;99750.34;5073456;28;20222;-61
2021/12/18 04:55:10;;;;;;;16.63;6.73;;;;;;;0.31;100.00;99761.16;5073348;28;20203;-69
2021/12/18 04:57:36;;;;;;;13.03;5.70;;;;;;;0.31;100.00;99753.63;5073276;28;20620;-60
2021/12/18 05:00:05;;;;;;;11.67;5.90;;;;;;;0.22;100.00;99757.13;5073439;28;20206;-60
2021/12/18 05:02:37;;;;;;;11.87;4.93;;;;;;;0.18;100.00;99756.38;5073625;28;20222;-69
2021/12/18 05:05:05;;;;;;;11.40;5.67;;;;;;;0.22;100.00;99763.00;5073474;28;20325;-60
2021/12/18 05:07:32;;;;;;;9.53;5.17;;;;;;;0.29;100.00;99760.34;5073305;28;20225;-61
2021/12/18 05:09:59;;;;;;;10.07;5.37;;;;;;;0.22;100.00;99752.94;5072968;28;20202;-60
2021/12/18 05:12:27;;;;;;;12.50;6.13;;;;;;;0.17;100.00;99759.72;5072931;28;20225;-61
2021/12/18 05:14:54;;;;;;;11.67;5.33;;;;;;;-0.02;100.00;99763.47;5073533;28;20203;-61
2021/12/18 05:17:21;;;;;;;12.30;5.47;;;;;;;-0.06;100.00;99756.81;5072814;28;20712;-61
2021/12/18 05:19:47;;;;;;;13.43;5.77;;;;;;;-0.10;100.00;99766.09;5072925;28;20198;-62
2021/12/18 05:22:14;;;;;;;14.53;5.43;;;;;;;-0.04;100.00;99765.16;5072827;28;20722;-60
2021/12/18 05:24:41;;;;;;;12.17;5.50;;;;;;;-0.03;100.00;99775.22;5072609;28;20249;-67
2021/12/18 05:27:08;;;;;;;12.00;5.57;;;;;;;-0.04;100.00;99785.28;5072615;28;20638;-59
2021/12/18 05:29:36;;;;;;;12.33;5.20;;;;;;;-0.05;100.00;99789.47;5072823;28;20604;-67
2021/12/18 05:32:03;;;;;;;12.00;6.03;;;;;;;-0.06;100.00;99789.50;5072398;28;20241;-62
2021/12/18 05:34:36;;;;;;;10.60;5.20;;;;;;;-0.07;100.00;99790.34;5072642;28;20598;-59
2021/12/18 05:37:19;;;;;;;13.93;5.13;;;;;;;-0.15;100.00;99802.22;5072011;28;20222;-61
2021/12/18 05:39:47;;;;;;;8.33;4.73;;;;;;;0.01;100.00;99796.09;5072724;28;20213;-61
2021/12/18 05:42:15;;;;;;;10.77;4.60;;;;;;;-0.09;100.00;99797.94;5072345;28;20225;-61
2021/12/18 05:44:43;;;;;;;13.37;5.43;;;;;;;-0.18;100.00;99802.28;5072547;28;20238;-68
2021/12/18 05:47:10;;;;;;;13.20;5.10;;;;;;;-0.31;100.00;99812.53;5072616;28;20234;-65
2021/12/18 05:49:37;;;;;;;13.20;5.47;;;;;;;-0.30;100.00;99814.19;5072533;28;20201;-67
2021/12/18 05:52:06;;;;;;;12.23;5.37;;;;;;;-0.24;100.00;99815.78;5072270;28;20230;-60
2021/12/18 05:54:35;;;;;;;14.37;5.97;;;;;;;-0.29;100.00;99813.34;5072518;28;20198;-60
2021/12/18 05:57:03;;;;;;;13.40;6.00;;;;;;;-0.31;100.00;99812.53;5072092;28;20254;-68
2021/12/18 05:59:29;;;;;;;9.53;5.47;;;;;;;-0.32;100.00;99810.88;5072249;28;20210;-68
2021/12/18 06:01:58;;;;;;;11.20;5.60;;;;;;;-0.36;100.00;99814.28;5072350;28;20581;-61
2021/12/18 06:04:24;;;;;;;14.37;5.73;;;;;;;-0.41;100.00;99821.06;5072170;28;20217;-68
2021/12/18 06:06:51;;;;;;;11.60;5.47;;;;;;;-0.36;100.00;99824.34;5071646;28;20246;-68
2021/12/18 06:09:18;;;;;;;15.03;5.60;;;;;;;-0.31;100.00;99827.63;5072185;28;20199;-62
2021/12/18 06:11:45;;;;;;;10.53;5.40;;;;;;;-0.20;100.00;99834.13;5072112;28;20617;-61
2021/12/18 06:14:12;;;;;;;10.63;4.97;;;;;;;-0.19;100.00;99840.84;5071918;28;20198;-68
2021/12/18 06:16:38;;;;;;;11.47;5.40;;;;;;;-0.15;100.00;99842.44;5071909;28;20704;-61
2021/12/18 06:19:07;;;;;;;12.37;5.20;;;;;;;-0.02;100.00;99844.72;5071918;28;20206;-62
2021/12/18 06:21:33;;;;;;;10.97;5.73;;;;;;;0.01;100.00;99848.06;5071574;28;20219;-68
2021/12/18 06:24:00;;;;;;;13.40;5.60;;;;;;;-0.06;100.00;99849.81;5071959;28;20199;-68
2021/12/18 06:26:27;;;;;;;13.00;5.27;;;;;;;0.00;100.00;99852.25;5071914;28;20227;-61
2021/12/18 06:28:55;;;;;;;9.33;5.03;;;;;;;0.05;100.00;99865.56;5071791;28;20593;-62
2021/12/18 06:31:22;;;;;;;9.07;5.00;;;;;;;0.05;100.00;99868.06;5071098;28;20313;-69
2021/12/18 06:33:49;;;;;;;12.03;4.80;;;;;;;0.08;100.00;99865.50;5071321;28;20203;-68
2021/12/18 06:36:17;;;;;;;11.20;5.60;;;;;;;0.13;100.00;99866.25;5071609;28;20234;-68
2021/12/18 06:38:44;;;;;;;15.80;7.57;;;;;;;0.22;100.00;99863.56;5071374;28;20598;-62
2021/12/18 06:41:11;;;;;;;41.50;18.70;;;;;;;0.22;100.00;99868.59;5071195;28;20234;-61
2021/12/18 06:43:38;;;;;;;15.53;7.67;;;;;;;0.25;100.00;99876.97;5071121;28;20198;-68
2021/12/18 06:46:06;;;;;;;13.17;5.83;;;;;;;0.32;100.00;99878.50;5071289;28;20619;-68
2021/12/18 06:48:33;;;;;;;14.17;5.80;;;;;;;0.33;100.00;99892.75;5070305;28;20199;-61
2021/12/18 06:51:00;;;;;;;11.87;5.73;;;;;;;0.34;100.00;99886.84;5071502;28;20195;-61
2021/12/18 06:53:28;;;;;;;11.93;5.77;;;;;;;0.45;100.00;99890.84;5071141;28;20664;-68
2021/12/18 06:55:55;;;;;;;18.93;6.37;;;;;;;0.51;100.00;99889.06;5071144;28;20214;-68
2021/12/18 06:58:22;;;;;;;10.50;5.20;;;;;;;0.51;100.00;99894.09;5071232;28;20222;-61
2021/12/18 07:00:49;;;;;;;12.57;5.77;;;;;;;0.54;100.00;99897.38;5071106;28;20210;-68
2021/12/18 07:03:16;;;;;;;10.67;5.33;;;;;;;0.52;100.00;99901.63;5070866;28;20309;-61
2021/12/18 07:05:42;;;;;;;11.93;5.90;;;;;;;0.57;100.00;99914.94;5070967;28;20227;-61
2021/12/18 07:08:09;;;;;;;17.63;8.63;;;;;;;0.61;100.00;99929.16;5070752;28;20222;-61
2021/12/18 07:10:37;;;;;;;17.70;8.93;;;;;;;0.61;100.00;99921.59;5070825;28;20656;-61
2021/12/18 07:13:04;;;;;;;17.27;7.77;;;;;;;0.67;100.00;99921.50;5070715;28;20227;-60
2021/12/18 07:15:32;;;;;;;12.73;6.23;;;;;;;0.78;100.00;99920.44;5071180;28;20659;-68
2021/12/18 07:17:59;;;;;;;11.70;5.07;;;;;;;0.82;100.00;99919.53;5070661;28;20214;-68
2021/12/18 07:20:27;;;;;;;13.03;5.93;;;;;;;0.94;100.00;99943.66;5070953;28;20218;-61
2021/12/18 07:22:54;;;;;;;10.00;5.50;;;;;;;1.04;100.00;99945.94;5070627;28;20309;-60
2021/12/18 07:25:22;;;;;;;12.20;6.50;;;;;;;1.14;100.00;99946.63;5070451;28;20234;-68
2021/12/18 07:27:50;;;;;;;14.10;6.50;;;;;;;1.17;100.00;99951.59;5070669;28;20226;-68
2021/12/18 07:30:17;;;;;;;18.43;7.90;;;;;;;1.23;100.00;99955.69;5070502;28;20213;-68
2021/12/18 07:32:43;;;;;;;16.57;7.90;;;;;;;1.35;100.00;99961.28;5070411;28;20545;-67
2021/12/18 07:35:11;;;;;;;13.37;6.60;;;;;;;1.38;100.00;99960.41;5070665;28;20256;-61
2021/12/18 07:37:38;;;;;;;14.03;6.77;;;;;;;1.37;100.00;99963.78;5070260;28;20283;-66
2021/12/18 07:40:07;;;;;;;19.57;10.40;;;;;;;1.44;100.00;99982.13;5070624;28;20203;-61
2021/12/18 07:42:35;;;;;;;24.00;11.73;;;;;;;1.39;100.00;99978.84;5070134;28;20738;-61
2021/12/18 07:45:05;;;;;;;20.80;11.00;;;;;;;1.40;100.00;99988.06;5070434;28;20198;-61
2021/12/18 07:47:32;;;;;;;21.10;11.33;;;;;;;1.34;100.00;99994.09;5070258;28;20215;-61
2021/12/18 07:49:58;;;;;;;19.30;9.20;;;;;;;1.33;100.00;99997.44;5070277;28;20581;-61
2021/12/18 07:52:25;;;;;;;18.27;8.50;;;;;;;1.37;100.00;99999.06;5070263;28;20222;-69
2021/12/18 07:54:52;;;;;;;15.43;7.90;;;;;;;1.41;99.71;100005.69;5070471;28;20210;-60
2021/12/18 07:57:19;;;;;;;9.80;5.43;;;;;;;1.43;99.88;100005.66;5070444;28;20244;-68
2021/12/18 07:59:48;;;;;;;12.03;5.43;;;;;;;1.46;99.50;100008.94;5070416;28;20209;-61
2021/12/18 08:02:16;;;;;;;14.47;5.33;;;;;;;1.45;99.80;100007.28;5074226;28;20224;-68
2021/12/18 08:04:43;;;;;;;10.40;6.00;;;;;;;1.40;99.47;100001.50;5074274;28;20198;-61
2021/12/18 08:07:10;;;;;;;12.67;6.07;;;;;;;1.24;100.00;100015.25;5073994;28;20237;-68
2021/12/18 08:09:37;;;;;;;11.37;5.80;;;;;;;1.15;100.00;100025.50;5074206;28;20206;-61
2021/12/18 08:12:04;;;;;;;16.57;7.53;;;;;;;1.05;100.00;100023.16;5074059;28;20222;-68
2021/12/18 08:14:32;;;;;;;13.07;6.40;;;;;;;1.13;100.00;100025.53;5074282;28;20667;-61
2021/12/18 08:16:58;;;;;;;14.30;6.47;;;;;;;0.85;100.00;100022.69;5074319;28;20731;-68
2021/12/18 08:19:27;;;;;;;20.53;10.30;;;;;;;0.76;100.00;100027.91;5074202;28;20195;-62
2021/12/18 08:21:53;;;;;;;14.60;8.20;;;;;;;0.93;100.00;100027.56;5074003;28;20727;-68
2021/12/18 08:24:21;;;;;;;13.10;7.40;;;;;;;1.19;100.00;100035.47;5073906;28;20202;-68
2021/12/18 08:26:47;;;;;;;15.70;6.80;;;;;;;0.94;100.00;100040.16;5074116;28;20230;-60
2021/12/18 08:29:14;;;;;;;18.33;8.63;;;;;;;0.82;100.00;100040.38;5074185;28;20676;-68
2021/12/18 08:31:41;;;;;;;12.10;6.00;;;;;;;1.06;100.00;100044.97;5073589;28;20234;-68
2021/12/18 08:34:08;;;;;;;12.07;6.20;;;;;;;0.83;100.00;100054.59;5074114;28;20203;-68
2021/12/18 08:36:36;;;;;;;13.40;6.37;;;;;;;0.74;100.00;100054.75;5073559;28;20214;-61
2021/12/18 08:39:03;;;;;;;9.73;5.73;;;;;;;0.72;100.00;100053.94;5073753;28;20256;-60
2021/12/18 08:41:30;;;;;;;12.07;5.87;;;;;;;0.62;100.00;100063.34;5073356;28;20219;-61
2021/12/18 08:43:57;;;;;;;10.93;5.80;;;;;;;0.79;100.00;100055.53;5073575;28;20210;-68
2021/12/18 08:46:24;;;;;;;11.40;5.93;;;;;;;0.73;100.00;100058.13;5073609;28;20234;-68
2021/12/18 08:48:51;;;;;;;14.20;6.43;;;;;;;0.68;100.00;100069.09;5073486;28;20699;-68
2021/12/18 08:51:18;;;;;;;12.67;7.30;;;;;;;0.58;100.00;100062.56;5073537;28;20242;-61
2021/12/18 08:53:46;;;;;;;17.10;7.53;;;;;;;0.68;100.00;100064.06;5073660;28;20202;-68
2021/12/18 08:56:12;;;;;;;16.80;7.33;;;;;;;0.73;100.00;100060.63;5073306;28;20230;-65
2021/12/18 08:58:39;;;;;;;11.93;4.87;;;;;;;0.64;100.00;100062.47;5073205;28;20703;-60
2021/12/18 09:01:06;;;;;;;14.57;5.77;;;;;;;0.65;100.00;100061.59;5073388;28;20225;-68
2021/12/18 09:03:33;;;;;;;11.23;5.07;;;;;;;0.65;100.00;100064.13;5073288;28;20203;-61
2021/12/18 09:06:00;;;;;;;8.53;4.73;;;;;;;0.61;100.00;100067.56;5073164;28;20234;-68
2021/12/18 09:08:27;;;;;;;11.13;5.23;;;;;;;0.61;100.00;100076.75;5073510;28;20209;-67
2021/12/18 09:10:55;;;;;;;13.90;5.80;;;;;;;0.80;100.00;100072.28;5073212;28;20285;-68
2021/12/18 09:13:22;;;;;;;11.20;5.63;;;;;;;0.73;100.00;100075.72;5072373;28;20199;-68
2021/12/18 09:15:49;;;;;;;12.40;5.47;;;;;;;0.65;100.00;100084.25;5072975;28;20644;-68
2021/12/18 09:18:15;;;;;;;11.33;5.83;;;;;;;0.73;100.00;100093.34;5073023;28;20209;-68
2021/12/18 09:20:44;;;;;;;15.40;6.90;;;;;;;0.98;100.00;100097.13;5072852;28;20561;-66
2021/12/18 09:23:13;;;;;;;16.23;7.80;;;;;;;1.08;100.00;100113.78;5072774;28;20218;-68
2021/12/18 09:25:40;;;;;;;19.30;9.17;;;;;;;1.22;100.00;100105.97;5072715;28;20672;-68
2021/12/18 09:28:08;;;;;;;18.10;7.70;;;;;;;1.13;100.00;100106.97;5072651;28;20219;-60
2021/12/18 09:30:35;;;;;;;16.17;7.27;;;;;;;0.82;100.00;100095.75;5072849;28;20233;-60
2021/12/18 09:33:03;;;;;;;18.90;8.63;;;;;;;0.69;100.00;100085.03;5072979;28;20218;-60
2021/12/18 09:35:30;;;;;;;11.53;4.80;;;;;;;0.59;100.00;100074.28;5072884;28;20202;-60
2021/12/18 09:37:57;;;;;;;8.97;4.13;;;;;;;0.53;100.00;100079.41;5072764;28;20218;-61
2021/12/18 09:40:24;;;;;;;9.63;4.63;;;;;;;0.46;100.00;100060.22;5072793;28;20199;-68
2021/12/18 09:42:51;;;;;;;10.13;4.73;;;;;;;0.37;100.00;100048.63;5072392;28;20215;-69
2021/12/18 09:45:19;;;;;;;11.33;4.97;;;;;;;0.39;100.00;100051.13;5072701;28;20210;-68
2021/12/18 09:47:47;;;;;;;6.87;3.60;;;;;;;0.39;100.00;100046.09;5072314;28;20488;-69
2021/12/18 09:50:15;;;;;;;11.23;5.37;;;;;;;0.37;100.00;100037.72;5072572;28;20202;-61
2021/12/18 09:52:42;;;;;;;10.90;5.20;;;;;;;0.40;100.00;100045.22;5072528;28;20231;-69
2021/12/18 09:55:10;;;;;;;11.80;5.47;;;;;;;0.31;100.00;100042.84;5072463;28;20209;-68
2021/12/18 09:57:38;;;;;;;9.07;4.07;;;;;;;0.32;100.00;100044.50;5072129;28;20222;-69
2021/12/18 10:00:07;;;;;;;8.40;4.90;;;;;;;0.46;100.00;100042.59;5072476;28;20208;-61
2021/12/18 10:02:36;;;;;;;11.57;5.27;;;;;;;0.54;100.00;100050.88;5072052;28;20223;-61
2021/12/18 10:05:03;;;;;;;11.37;5.27;;;;;;;0.59;100.00;100051.63;5072037;28;20214;-62
2021/12/18 10:07:30;;;;;;;12.47;5.60;;;;;;;0.66;100.00;100050.66;5071960;28;20234;-60
2021/12/18 10:10:00;;;;;;;13.40;5.87;;;;;;;0.75;100.00;100053.91;5072211;28;20206;-68
2021/12/18 10:12:29;;;;;;;10.53;5.47;;;;;;;0.99;100.00;100048.47;5072073;28;20227;-60
2021/12/18 10:14:57;;;;;;;13.53;6.63;;;;;;;1.32;100.00;100047.00;5072130;28;20203;-69
2021/12/18 10:17:29;;;;;;;12.30;6.03;;;;;;;1.65;100.00;100053.94;5072026;28;20241;-61
2021/12/18 10:20:18;;;;;;;12.80;5.80;;;;;;;1.85;100.00;100049.31;5072059;28;20686;-68
2021/12/18 10:22:46;;;;;;;13.27;6.30;;;;;;;2.02;100.00;100054.00;5071011;28;20218;-68
2021/12/18 10:25:16;;;;;;;11.67;6.07;;;;;;;2.19;100.00;100048.59;5071521;28;20209;-61
2021/12/18 10:27:47;;;;;;;19.50;8.97;;;;;;;2.19;100.00;100046.88;5071525;28;20241;-68
2021/12/18 10:30:20;;;;;;;12.70;5.80;;;;;;;2.36;100.00;100054.06;5071492;28;20305;-66
2021/12/18 10:32:56;;;;;;;11.50;5.83;;;;;;;2.49;100.00;100047.88;5071380;28;20746;-68
2021/12/18 10:35:37;;;;;;;10.83;5.47;;;;;;;2.50;100.00;100041.13;5071748;28;20578;-61
2021/12/18 10:38:04;;;;;;;12.20;5.97;;;;;;;2.53;100.00;100045.25;5071409;28;20222;-68
2021/12/18 10:40:43;;;;;;;11.87;5.70;;;;;;;2.73;100.00;100053.19;5071484;28;20206;-68
2021/12/18 10:43:10;;;;;;;13.70;6.87;;;;;;;2.63;100.00;100046.72;5071145;28;20718;-60
2021/12/18 10:45:37;;;;;;;15.37;8.10;;;;;;;2.72;100.00;100042.25;5071040;28;20202;-66
2021/12/18 10:48:06;;;;;;;10.87;5.27;;;;;;;2.92;100.00;100046.81;5070973;28;20238;-67
2021/12/18 10:50:45;;;;;;;13.57;5.50;;;;;;;2.74;100.00;100049.00;5071458;28;20202;-68
2021/12/18 10:53:15;;;;;;;81.00;25.80;;;;;;;2.69;100.00;100047.38;5071333;28;20580;-68
2021/12/18 10:55:47;;;;;;;307.50;82.37;;;;;;;2.49;100.00;100042.81;5071153;28;20209;-68
2021/12/18 10:58:20;;;;;;;216.10;60.53;;;;;;;2.48;100.00;100046.22;5071035;28;20214;-60
2021/12/18 11:00:58;;;;;;;104.97;41.63;;;;;;;2.36;100.00;100046.50;5071304;28;20209;-68
2021/12/18 11:03:30;;;;;;;133.73;52.97;;;;;;;2.12;100.00;100039.47;5070963;28;20194;-60
2021/12/18 11:06:08;;;;;;;18.23;8.97;;;;;;;2.17;100.00;100038.50;5071335;28;20201;-60
2021/12/18 11:08:38;;;;;;;13.07;6.63;;;;;;;1.93;100.00;100034.84;5070794;28;20202;-68
2021/12/18 11:13:48;;;;;;;8.57;4.90;;;;;;;2.34;100.00;100025.53;5070682;28;20252;-60
2021/12/18 11:16:16;;;;;;;10.00;4.97;;;;;;;2.76;100.00;100021.97;5071027;28;20214;-68
2021/12/18 11:18:43;;;;;;;9.60;4.83;;;;;;;2.93;100.00;100030.78;5070515;28;20198;-67
2021/12/18 11:21:12;;;;;;;11.30;5.20;;;;;;;3.11;100.00;100031.16;5070795;28;20226;-63
2021/12/18 11:23:42;;;;;;;13.10;8.53;;;;;;;3.31;100.00;100021.34;5070470;28;20668;-68
2021/12/18 11:26:10;;;;;;;12.67;5.13;;;;;;;2.99;100.00;100026.44;5070765;28;20229;-61
2021/12/18 11:28:43;;;;;;;11.00;5.63;;;;;;;3.10;100.00;100029.53;5070525;28;20199;-61
2021/12/18 11:31:10;;;;;;;26.17;14.73;;;;;;;3.06;100.00;100026.25;5070780;28;20688;-61
2021/12/18 11:33:38;;;;;;;13.17;7.23;;;;;;;3.15;100.00;100025.19;5070327;28;20194;-68
2021/12/18 11:36:07;;;;;;;10.17;5.40;;;;;;;3.13;100.00;100027.75;5070077;28;20202;-67
2021/12/18 11:38:41;;;;;;;9.83;5.27;;;;;;;3.09;100.00;100035.47;5070541;28;20256;-59
2021/12/18 11:41:15;;;;;;;9.83;4.47;;;;;;;3.25;100.00;100026.56;5070503;28;20230;-67
2021/12/18 11:43:45;;;;;;;8.70;5.20;;;;;;;3.52;100.00;100026.69;5070733;28;20579;-68
2021/12/18 11:46:36;;;;;;;9.83;4.77;;;;;;;3.76;100.00;100033.59;5070623;28;20340;-61
2021/12/18 11:49:05;;;;;;;10.73;6.00;;;;;;;3.95;99.81;100040.63;5070903;28;20225;-68
2021/12/18 11:51:33;;;;;;;8.27;4.70;;;;;;;4.17;98.42;100044.16;5070563;28;20231;-69
2021/12/18 11:54:03;;;;;;;6.43;4.13;;;;;;;4.48;98.53;100039.00;5070548;28;20221;-69
2021/12/18 11:56:46;;;;;;;10.70;5.03;;;;;;;4.72;98.78;100044.97;5070380;28;20222;-68